Time;durP1;ratioP1;P1;durP2;ratioP2;P2;SDS_P1;SDS_P2;PMS_P1;PMS_P2;Temp;Humidity;BMP_temperature;BMP_pressure;BME280_temperature;BME280_humidity;BME280_pressure;Samples;Min_cycle;Max_cycle;Signal;HPM_P1;HPM_P2
2022/04/08 00:00:46;;;;;;;3.00;1.05;;;;;;;;;;5075956;28;20501;-81
2022/04/08 00:03:11;;;;;;;2.83;0.90;;;;;;;;;;5076606;28;20028;-81
2022/04/08 00:05:36;;;;;;;1.33;0.75;;;;;;;;;;5076199;28;20115;-81
2022/04/08 00:08:02;;;;;;;3.53;1.10;;;;;;;;;;5075786;28;20024;-80
2022/04/08 00:10:27;;;;;;;2.55;0.98;;;;;;;;;;5094514;28;20111;-84
2022/04/08 00:12:53;;;;;;;2.20;1.00;;;;;;;;;;5076419;28;20077;-83
2022/04/08 00:15:18;;;;;;;1.48;0.73;;;;;;;;;;5094405;28;20114;-83
2022/04/08 00:17:44;;;;;;;2.00;0.88;;;;;;;;;;5094083;28;20137;-81
2022/04/08 00:20:10;;;;;;;1.05;0.70;;;;;;;;;;5093906;28;20028;-80
2022/04/08 00:22:40;;;;;;;1.60;0.90;;;;;;;;;;5058844;28;20465;-82
2022/04/08 00:25:07;;;;;;;1.90;0.80;;;;;;;;;;5076168;28;20027;-82
2022/04/08 00:27:32;;;;;;;1.83;0.90;;;;;;;;;;5076300;28;20055;-82
2022/04/08 00:29:57;;;;;;;1.80;0.70;;;;;;;;;;5093742;28;20487;-81
2022/04/08 00:32:24;;;;;;;2.72;0.90;;;;;;;;;;5093992;28;20055;-81
2022/04/08 00:34:49;;;;;;;3.22;0.93;;;;;;;;;;5075865;28;20360;-81
2022/04/08 00:37:15;;;;;;;1.45;0.80;;;;;;;;;;5093630;28;20085;-80
2022/04/08 00:39:40;;;;;;;2.85;0.90;;;;;;;;;;5093789;28;20032;-80
2022/04/08 00:42:06;;;;;;;3.33;0.77;;;;;;;;;;5093915;28;20028;-80
2022/04/08 00:44:32;;;;;;;1.00;0.75;;;;;;;;;;5075356;28;20024;-80
2022/04/08 00:46:57;;;;;;;3.22;0.70;;;;;;;;;;5058483;28;20036;-83
2022/04/08 00:49:22;;;;;;;3.00;1.25;;;;;;;;;;5093345;28;20028;-81
2022/04/08 00:51:48;;;;;;;2.53;0.88;;;;;;;;;;5093323;28;20036;-82
2022/04/08 00:54:13;;;;;;;2.17;1.20;;;;;;;;;;5075121;28;20068;-81
2022/04/08 00:56:38;;;;;;;1.75;0.90;;;;;;;;;;5075358;28;20527;-81
2022/04/08 00:59:04;;;;;;;1.70;0.90;;;;;;;;;;5075389;28;20090;-82
2022/04/08 01:01:30;;;;;;;1.85;1.02;;;;;;;;;;5075001;28;20099;-82
2022/04/08 01:03:57;;;;;;;2.90;1.02;;;;;;;;;;5075245;28;20036;-82
2022/04/08 01:06:25;;;;;;;1.75;0.93;;;;;;;;;;5058326;28;20032;-81
2022/04/08 01:08:51;;;;;;;4.10;1.15;;;;;;;;;;5074755;28;20036;-83
2022/04/08 01:11:16;;;;;;;1.83;0.90;;;;;;;;;;5074651;28;20024;-83
2022/04/08 01:13:42;;;;;;;1.23;0.82;;;;;;;;;;5093105;28;20497;-82
2022/04/08 01:16:08;;;;;;;1.60;0.77;;;;;;;;;;5058315;28;20080;-81
2022/04/08 01:18:34;;;;;;;3.45;0.85;;;;;;;;;;5092913;28;20060;-81
2022/04/08 01:21:07;;;;;;;1.38;1.00;;;;;;;;;;5092790;28;20076;-83
2022/04/08 01:23:34;;;;;;;3.40;1.15;;;;;;;;;;5074467;28;20055;-81
2022/04/08 01:26:03;;;;;;;2.17;1.15;;;;;;;;;;5041325;28;20024;-82
2022/04/08 01:28:28;;;;;;;2.40;0.60;;;;;;;;;;5074500;28;20032;-83
2022/04/08 01:30:54;;;;;;;2.13;1.08;;;;;;;;;;5058101;28;20035;-83
2022/04/08 01:33:20;;;;;;;1.48;0.77;;;;;;;;;;5074416;28;20394;-82
2022/04/08 01:35:45;;;;;;;1.27;0.60;;;;;;;;;;5092501;28;20028;-83
2022/04/08 01:38:10;;;;;;;2.47;1.23;;;;;;;;;;5092728;28;20117;-82
2022/04/08 01:40:36;;;;;;;4.43;1.00;;;;;;;;;;5092500;28;20031;-83
2022/04/08 01:43:01;;;;;;;1.75;1.00;;;;;;;;;;5092356;28;20035;-82
2022/04/08 01:45:27;;;;;;;2.35;0.90;;;;;;;;;;5073911;28;20032;-81
2022/04/08 01:47:52;;;;;;;2.80;1.40;;;;;;;;;;5092627;28;20024;-82
2022/04/08 01:50:20;;;;;;;1.55;0.60;;;;;;;;;;5074360;28;20104;-81
2022/04/08 01:52:46;;;;;;;3.97;1.17;;;;;;;;;;5074687;28;20034;-81
2022/04/08 01:55:12;;;;;;;2.15;0.90;;;;;;;;;;5092560;28;20108;-81
2022/04/08 01:57:37;;;;;;;2.25;1.20;;;;;;;;;;5074337;28;20486;-81
2022/04/08 02:00:04;;;;;;;3.72;0.80;;;;;;;;;;5092295;28;20024;-81
2022/04/08 02:02:29;;;;;;;1.33;0.90;;;;;;;;;;5092190;28;20055;-82
2022/04/08 02:04:55;;;;;;;2.20;0.95;;;;;;;;;;5074208;28;20032;-81
2022/04/08 02:07:20;;;;;;;2.78;1.05;;;;;;;;;;5092366;28;20115;-81
2022/04/08 02:09:46;;;;;;;2.42;1.10;;;;;;;;;;5092352;28;20035;-81
2022/04/08 02:12:11;;;;;;;2.05;1.08;;;;;;;;;;5092080;28;20107;-81
2022/04/08 02:14:37;;;;;;;2.05;0.80;;;;;;;;;;5074260;28;20021;-81
2022/04/08 02:17:02;;;;;;;3.42;1.00;;;;;;;;;;5073942;28;20024;-82
2022/04/08 02:19:28;;;;;;;1.45;0.80;;;;;;;;;;5092304;28;20032;-82
2022/04/08 02:21:53;;;;;;;2.17;1.00;;;;;;;;;;5073764;28;20185;-82
2022/04/08 02:24:19;;;;;;;2.30;1.00;;;;;;;;;;5073841;28;20031;-82
2022/04/08 02:26:44;;;;;;;2.55;1.05;;;;;;;;;;5073730;28;20039;-82
2022/04/08 02:29:10;;;;;;;2.35;0.95;;;;;;;;;;5057215;28;20029;-82
2022/04/08 02:31:36;;;;;;;2.00;1.10;;;;;;;;;;5057572;28;20028;-82
2022/04/08 02:34:01;;;;;;;1.90;0.90;;;;;;;;;;5074135;28;20092;-82
2022/04/08 02:36:27;;;;;;;2.05;0.93;;;;;;;;;;5091996;28;20074;-82
2022/04/08 02:38:52;;;;;;;2.42;1.00;;;;;;;;;;5092124;28;20378;-82
2022/04/08 02:41:17;;;;;;;2.95;1.00;;;;;;;;;;5091899;28;20040;-81
2022/04/08 02:43:43;;;;;;;1.90;0.70;;;;;;;;;;5057026;28;20031;-81
2022/04/08 02:46:08;;;;;;;3.28;1.08;;;;;;;;;;5091982;28;20467;-81
2022/04/08 02:48:34;;;;;;;2.83;0.85;;;;;;;;;;5073600;28;20040;-82
2022/04/08 02:50:59;;;;;;;3.08;1.27;;;;;;;;;;5092094;28;20028;-81
2022/04/08 02:53:24;;;;;;;5.93;1.13;;;;;;;;;;5091783;28;20032;-80
2022/04/08 02:55:50;;;;;;;1.83;0.90;;;;;;;;;;5073603;28;20028;-81
2022/04/08 02:58:15;;;;;;;1.33;0.80;;;;;;;;;;5060550;28;20161;-81
2022/04/08 03:00:40;;;;;;;3.63;1.13;;;;;;;;;;5095560;28;20028;-83
2022/04/08 03:03:06;;;;;;;3.03;0.98;;;;;;;;;;5095831;28;20028;-82
2022/04/08 03:05:31;;;;;;;1.42;1.00;;;;;;;;;;5077179;28;20032;-82
2022/04/08 03:07:57;;;;;;;4.18;1.05;;;;;;;;;;5095244;28;20023;-81
2022/04/08 03:10:22;;;;;;;1.38;0.90;;;;;;;;;;5095186;28;20036;-81
2022/04/08 03:12:48;;;;;;;1.80;0.93;;;;;;;;;;5060440;28;20028;-81
2022/04/08 03:15:13;;;;;;;3.17;1.00;;;;;;;;;;5095414;28;20388;-83
2022/04/08 03:17:39;;;;;;;2.40;1.08;;;;;;;;;;5095005;28;20032;-81
2022/04/08 03:20:05;;;;;;;3.50;0.95;;;;;;;;;;5095320;28;20462;-82
2022/04/08 03:22:30;;;;;;;1.10;0.70;;;;;;;;;;5059932;28;20422;-82
2022/04/08 03:24:56;;;;;;;1.95;1.05;;;;;;;;;;5095213;28;20028;-82
2022/04/08 03:27:21;;;;;;;3.10;1.00;;;;;;;;;;5076749;28;20073;-82
2022/04/08 03:29:48;;;;;;;2.78;1.10;;;;;;;;;;5076722;28;20089;-82
2022/04/08 03:32:14;;;;;;;2.80;1.30;;;;;;;;;;5060126;28;20039;-83
2022/04/08 03:34:39;;;;;;;2.17;0.98;;;;;;;;;;5094839;28;20369;-82
2022/04/08 03:37:05;;;;;;;2.38;1.10;;;;;;;;;;5076702;28;20489;-83
2022/04/08 03:39:30;;;;;;;4.35;1.10;;;;;;;;;;5059957;28;20036;-82
2022/04/08 03:41:56;;;;;;;3.30;0.93;;;;;;;;;;5076632;28;20051;-83
2022/04/08 03:44:21;;;;;;;3.40;1.00;;;;;;;;;;5043517;28;20031;-83
2022/04/08 03:46:47;;;;;;;2.53;1.10;;;;;;;;;;5076537;28;20085;-82
2022/04/08 03:49:15;;;;;;;2.28;1.13;;;;;;;;;;5094790;28;20499;-82
2022/04/08 03:51:45;;;;;;;2.08;1.13;;;;;;;;;;5076136;28;20020;-82
2022/04/08 03:54:11;;;;;;;2.08;0.85;;;;;;;;;;5076549;28;20020;-83
2022/04/08 03:56:37;;;;;;;3.97;0.90;;;;;;;;;;5076545;28;20420;-83
2022/04/08 03:59:03;;;;;;;2.38;1.05;;;;;;;;;;5076224;28;20416;-83
2022/04/08 04:01:28;;;;;;;4.28;1.55;;;;;;;;;;5075853;28;20498;-83
2022/04/08 04:03:54;;;;;;;1.67;1.00;;;;;;;;;;5094155;28;20074;-83
2022/04/08 04:06:19;;;;;;;1.23;0.80;;;;;;;;;;5094065;28;20042;-83
2022/04/08 04:08:44;;;;;;;2.80;1.20;;;;;;;;;;5093561;28;20063;-81
2022/04/08 04:11:14;;;;;;;2.72;1.08;;;;;;;;;;5094348;28;20049;-83
2022/04/08 04:13:41;;;;;;;3.70;0.90;;;;;;;;;;5093961;28;20113;-83
2022/04/08 04:16:06;;;;;;;2.55;1.08;;;;;;;;;;5076234;28;20032;-83
2022/04/08 04:18:32;;;;;;;1.98;0.90;;;;;;;;;;5095710;28;20034;-82
2022/04/08 04:20:57;;;;;;;2.78;1.20;;;;;;;;;;5076000;28;20059;-82
2022/04/08 04:23:22;;;;;;;2.28;1.10;;;;;;;;;;5075722;28;20359;-82
2022/04/08 04:25:48;;;;;;;1.83;1.10;;;;;;;;;;5075684;28;20348;-83
2022/04/08 04:28:13;;;;;;;1.70;0.95;;;;;;;;;;5094168;28;20197;-83
2022/04/08 04:30:38;;;;;;;1.80;1.00;;;;;;;;;;5093572;28;20032;-83
2022/04/08 04:33:07;;;;;;;13.43;1.23;;;;;;;;;;5095075;28;20100;-83
2022/04/08 04:35:36;;;;;;;2.45;0.95;;;;;;;;;;5095171;28;20032;-84
2022/04/08 04:38:01;;;;;;;5.22;0.93;;;;;;;;;;5076482;28;20027;-83
2022/04/08 04:40:27;;;;;;;2.70;1.17;;;;;;;;;;5094654;28;20027;-84
2022/04/08 04:42:52;;;;;;;2.90;1.00;;;;;;;;;;5076653;28;20024;-83
2022/04/08 04:45:18;;;;;;;2.35;1.10;;;;;;;;;;5094864;28;20028;-83
2022/04/08 04:47:44;;;;;;;3.67;0.95;;;;;;;;;;5076606;28;20483;-83
2022/04/08 04:50:09;;;;;;;2.42;1.00;;;;;;;;;;5094557;28;20073;-84
2022/04/08 04:52:35;;;;;;;3.47;1.13;;;;;;;;;;5076320;28;20024;-84
2022/04/08 04:55:00;;;;;;;6.45;1.25;;;;;;;;;;5059679;28;20115;-84
2022/04/08 04:57:26;;;;;;;7.53;1.88;;;;;;;;;;5061174;28;20028;-83
2022/04/08 04:59:52;;;;;;;3.35;1.02;;;;;;;;;;5062880;28;20085;-83
2022/04/08 05:02:17;;;;;;;3.30;0.98;;;;;;;;;;5096616;28;20092;-82
2022/04/08 05:04:43;;;;;;;2.40;1.15;;;;;;;;;;5096897;28;20032;-83
2022/04/08 05:07:08;;;;;;;4.85;1.48;;;;;;;;;;5061620;28;20043;-83
2022/04/08 05:09:33;;;;;;;2.67;1.05;;;;;;;;;;5078834;28;20035;-83
2022/04/08 05:11:59;;;;;;;6.40;0.93;;;;;;;;;;5078258;28;20497;-83
2022/04/08 05:14:24;;;;;;;6.13;1.65;;;;;;;;;;5062417;28;20131;-82
2022/04/08 05:16:51;;;;;;;1.80;1.10;;;;;;;;;;5095569;28;20109;-83
2022/04/08 05:19:16;;;;;;;7.78;1.13;;;;;;;;;;5095443;28;20028;-83
2022/04/08 05:21:42;;;;;;;8.70;1.48;;;;;;;;;;5096580;28;20564;-84
2022/04/08 05:24:07;;;;;;;4.05;1.20;;;;;;;;;;5061509;28;20066;-83
2022/04/08 05:26:33;;;;;;;5.75;1.30;;;;;;;;;;5061280;28;20509;-83
2022/04/08 05:28:58;;;;;;;7.45;1.67;;;;;;;;;;5096495;28;20020;-83
2022/04/08 05:31:24;;;;;;;6.35;1.92;;;;;;;;;;5078310;28;20474;-84
2022/04/08 05:33:49;;;;;;;2.28;0.95;;;;;;;;;;5096437;28;20028;-84
2022/04/08 05:36:14;;;;;;;3.60;1.02;;;;;;;;;;5096469;28;20101;-84
2022/04/08 05:38:40;;;;;;;3.88;1.05;;;;;;;;;;5077370;28;20051;-84
2022/04/08 05:41:05;;;;;;;3.63;1.05;;;;;;;;;;5077757;28;20039;-84
2022/04/08 05:43:30;;;;;;;1.90;0.93;;;;;;;;;;5077664;28;20070;-84
2022/04/08 05:45:56;;;;;;;6.38;1.35;;;;;;;;;;5078098;28;20035;-84
2022/04/08 05:48:21;;;;;;;1.45;1.00;;;;;;;;;;5096521;28;20382;-84
2022/04/08 05:50:47;;;;;;;11.63;2.03;;;;;;;;;;5061528;28;20383;-83
2022/04/08 05:53:13;;;;;;;1.60;0.95;;;;;;;;;;5078455;28;20085;-83
2022/04/08 05:55:38;;;;;;;4.18;1.00;;;;;;;;;;5078559;28;20061;-83
2022/04/08 05:58:04;;;;;;;4.50;1.20;;;;;;;;;;5077774;28;20470;-83
2022/04/08 06:00:31;;;;;;;4.90;1.05;;;;;;;;;;5060915;28;20032;-83
2022/04/08 06:02:57;;;;;;;2.10;0.90;;;;;;;;;;5077930;28;20078;-83
2022/04/08 06:05:23;;;;;;;3.90;1.33;;;;;;;;;;5094009;28;20055;-83
2022/04/08 06:07:53;;;;;;;4.03;1.45;;;;;;;;;;5093873;28;20062;-83
2022/04/08 06:10:22;;;;;;;7.18;1.20;;;;;;;;;;5058785;28;20036;-84
2022/04/08 06:12:51;;;;;;;4.75;1.10;;;;;;;;;;5075941;28;20051;-83
2022/04/08 06:15:17;;;;;;;2.33;1.00;;;;;;;;;;5075361;28;20429;-83
2022/04/08 06:17:43;;;;;;;2.90;1.10;;;;;;;;;;5075466;28;20023;-83
2022/04/08 06:20:11;;;;;;;1.70;0.80;;;;;;;;;;5093862;28;20473;-83
2022/04/08 06:22:41;;;;;;;4.10;0.90;;;;;;;;;;5071676;28;20068;-83
2022/04/08 06:25:15;;;;;;;4.30;0.90;;;;;;;;;;5073240;28;20090;-83
2022/04/08 06:27:41;;;;;;;4.57;1.20;;;;;;;;;;5073287;28;20048;-83
2022/04/08 06:30:09;;;;;;;2.33;1.10;;;;;;;;;;5074028;28;20357;-83
2022/04/08 06:32:35;;;;;;;1.27;1.05;;;;;;;;;;5077020;28;20107;-83
2022/04/08 06:35:01;;;;;;;3.28;1.30;;;;;;;;;;5076824;28;20103;-83
2022/04/08 06:37:28;;;;;;;2.80;0.98;;;;;;;;;;5076562;28;20136;-83
2022/04/08 06:39:53;;;;;;;2.80;1.23;;;;;;;;;;5075491;28;20066;-83
2022/04/08 06:42:18;;;;;;;2.60;1.05;;;;;;;;;;5075383;28;20487;-83
2022/04/08 06:44:44;;;;;;;2.92;0.95;;;;;;;;;;5076690;28;20123;-83
2022/04/08 06:47:09;;;;;;;4.03;1.55;;;;;;;;;;5076636;28;20033;-83
2022/04/08 06:49:34;;;;;;;2.35;1.15;;;;;;;;;;5076866;28;20029;-83
2022/04/08 06:52:01;;;;;;;3.42;1.60;;;;;;;;;;5075256;28;20183;-83
2022/04/08 06:54:27;;;;;;;1.60;0.80;;;;;;;;;;5076761;28;20056;-83
2022/04/08 06:56:52;;;;;;;1.90;0.95;;;;;;;;;;5077174;28;20130;-83
2022/04/08 06:59:17;;;;;;;4.15;0.85;;;;;;;;;;5076588;28;20104;-83
2022/04/08 07:01:43;;;;;;;3.33;1.00;;;;;;;;;;5075433;28;20356;-83
2022/04/08 07:04:08;;;;;;;1.60;0.90;;;;;;;;;;5075304;28;20032;-83
2022/04/08 07:06:34;;;;;;;2.65;1.20;;;;;;;;;;5076247;28;20086;-83
2022/04/08 07:08:59;;;;;;;4.68;1.42;;;;;;;;;;5076392;28;20462;-83
2022/04/08 07:11:25;;;;;;;1.27;0.85;;;;;;;;;;5074930;28;20119;-83
2022/04/08 07:13:50;;;;;;;2.20;0.90;;;;;;;;;;5041552;28;20403;-83
2022/04/08 07:16:16;;;;;;;2.88;1.20;;;;;;;;;;5076354;28;20074;-83
2022/04/08 07:18:41;;;;;;;2.92;0.90;;;;;;;;;;5074832;28;20032;-83
2022/04/08 07:21:06;;;;;;;0.93;0.73;;;;;;;;;;5061705;28;20058;-83
2022/04/08 07:23:32;;;;;;;3.22;1.02;;;;;;;;;;5096780;28;20047;-83
2022/04/08 07:25:57;;;;;;;2.75;0.82;;;;;;;;;;5096416;28;20024;-83
2022/04/08 07:28:23;;;;;;;4.68;1.33;;;;;;;;;;5078021;28;20020;-83
2022/04/08 07:30:49;;;;;;;3.55;1.20;;;;;;;;;;5077961;28;20027;-83
2022/04/08 07:33:15;;;;;;;3.10;0.93;;;;;;;;;;5078619;28;20028;-82
2022/04/08 07:35:41;;;;;;;2.38;1.17;;;;;;;;;;5096175;28;20364;-83
2022/04/08 07:38:07;;;;;;;2.80;1.10;;;;;;;;;;5095900;28;20036;-82
2022/04/08 07:40:32;;;;;;;4.10;1.50;;;;;;;;;;5077735;28;20494;-83
2022/04/08 07:42:58;;;;;;;5.70;1.00;;;;;;;;;;5076926;28;20035;-83
2022/04/08 07:45:27;;;;;;;1.60;1.05;;;;;;;;;;5061275;28;20024;-85
2022/04/08 07:47:55;;;;;;;4.72;1.33;;;;;;;;;;5078475;28;20020;-87
2022/04/08 07:50:21;;;;;;;8.02;1.75;;;;;;;;;;5061156;28;20394;-84
2022/04/08 07:52:46;;;;;;;6.78;2.03;;;;;;;;;;5095958;28;20024;-85
2022/04/08 07:55:12;;;;;;;11.63;2.20;;;;;;;;;;5077910;28;20024;-84
2022/04/08 07:57:44;;;;;;;7.75;2.50;;;;;;;;;;5077756;28;20034;-83
2022/04/08 08:00:11;;;;;;;8.35;2.10;;;;;;;;;;5077221;28;20024;-83
2022/04/08 08:02:36;;;;;;;10.75;2.55;;;;;;;;;;5077285;28;20062;-82
2022/04/08 08:05:02;;;;;;;7.10;1.98;;;;;;;;;;5095481;28;20475;-82
2022/04/08 08:07:27;;;;;;;5.65;2.13;;;;;;;;;;5077637;28;20035;-85
2022/04/08 08:09:53;;;;;;;7.88;1.75;;;;;;;;;;5077813;28;20028;-88
2022/04/08 08:12:19;;;;;;;9.07;1.83;;;;;;;;;;5077732;28;20394;-84
2022/04/08 08:14:44;;;;;;;6.88;1.95;;;;;;;;;;5095413;28;20027;-84
2022/04/08 08:17:10;;;;;;;7.85;2.00;;;;;;;;;;5077257;28;20031;-84
2022/04/08 08:19:36;;;;;;;5.47;1.70;;;;;;;;;;5077163;28;20028;-84
2022/04/08 08:22:02;;;;;;;5.95;1.65;;;;;;;;;;5095247;28;20052;-84
2022/04/08 08:24:27;;;;;;;4.55;1.70;;;;;;;;;;5095387;28;20046;-84
2022/04/08 08:26:53;;;;;;;7.82;2.13;;;;;;;;;;5095881;28;20102;-84
2022/04/08 08:29:18;;;;;;;8.23;1.80;;;;;;;;;;5077017;28;20032;-85
2022/04/08 08:31:44;;;;;;;9.70;1.77;;;;;;;;;;5077968;28;20035;-84
2022/04/08 08:34:09;;;;;;;5.25;1.67;;;;;;;;;;5095701;28;20089;-83
2022/04/08 08:36:34;;;;;;;8.95;1.77;;;;;;;;;;5095703;28;20028;-85
2022/04/08 08:39:00;;;;;;;6.82;1.70;;;;;;;;;;5095131;28;20436;-83
2022/04/08 08:41:26;;;;;;;4.43;1.63;;;;;;;;;;5076895;28;20054;-84
2022/04/08 08:43:54;;;;;;;2.80;1.40;;;;;;;;;;5094997;28;20028;-83
2022/04/08 08:46:21;;;;;;;9.02;1.55;;;;;;;;;;5094852;28;20036;-83
2022/04/08 08:48:50;;;;;;;5.88;1.40;;;;;;;;;;5094890;28;20028;-82
2022/04/08 08:51:16;;;;;;;12.13;1.50;;;;;;;;;;5077774;28;20077;-84
2022/04/08 08:53:43;;;;;;;5.85;1.77;;;;;;;;;;5076529;28;20032;-84
2022/04/08 08:56:09;;;;;;;4.18;1.40;;;;;;;;;;5060140;28;20028;-82
2022/04/08 08:58:34;;;;;;;5.53;1.63;;;;;;;;;;5076445;28;20039;-82
2022/04/08 09:01:00;;;;;;;5.32;2.03;;;;;;;;;;5076235;28;20111;-79
2022/04/08 09:03:29;;;;;;;5.60;1.50;;;;;;;;;;5094583;28;20442;-81
2022/04/08 09:05:55;;;;;;;5.22;1.58;;;;;;;;;;5078285;28;20032;-82
2022/04/08 09:08:21;;;;;;;5.13;1.40;;;;;;;;;;5094543;28;20055;-83
2022/04/08 09:10:48;;;;;;;6.75;1.23;;;;;;;;;;5094484;28;20027;-86
2022/04/08 09:13:19;;;;;;;8.02;1.73;;;;;;;;;;5077019;28;20066;-86
2022/04/08 09:15:58;;;;;;;7.28;1.40;;;;;;;;;;5094312;28;20429;-85
2022/04/08 09:18:26;;;;;;;2.58;1.17;;;;;;;;;;5076168;28;20056;-86
2022/04/08 09:20:51;;;;;;;7.97;2.28;;;;;;;;;;5075910;28;20494;-85
2022/04/08 09:23:18;;;;;;;6.05;1.65;;;;;;;;;;5059404;28;20024;-86
2022/04/08 09:25:45;;;;;;;6.43;1.55;;;;;;;;;;5076205;28;20049;-82
2022/04/08 09:28:13;;;;;;;4.47;1.45;;;;;;;;;;5075758;28;20020;-82
2022/04/08 09:30:39;;;;;;;9.80;2.28;;;;;;;;;;5075858;28;20074;-80
2022/04/08 09:33:24;;;;;;;8.77;1.90;;;;;;;;;;5076306;28;20067;-82
2022/04/08 09:35:53;;;;;;;3.85;1.35;;;;;;;;;;5059826;28;20035;-84
2022/04/08 09:38:20;;;;;;;12.45;1.67;;;;;;;;;;5093678;28;20039;-84
2022/04/08 09:40:47;;;;;;;7.68;1.63;;;;;;;;;;5075639;28;20016;-84
2022/04/08 09:43:13;;;;;;;3.90;1.52;;;;;;;;;;5076136;28;20387;-84
2022/04/08 09:45:39;;;;;;;4.68;1.48;;;;;;;;;;5076235;28;20027;-84
2022/04/08 09:48:06;;;;;;;5.65;1.73;;;;;;;;;;5075800;28;20024;-84
2022/04/08 09:50:32;;;;;;;3.75;1.45;;;;;;;;;;5075618;28;20020;-84
2022/04/08 09:52:58;;;;;;;5.05;1.88;;;;;;;;;;5075582;28;20024;-84
2022/04/08 09:55:25;;;;;;;3.33;1.25;;;;;;;;;;5093490;28;20478;-85
2022/04/08 09:57:55;;;;;;;2.45;1.15;;;;;;;;;;5075961;28;20455;-84
2022/04/08 10:00:20;;;;;;;4.97;1.25;;;;;;;;;;5075977;28;20024;-85
2022/04/08 10:02:48;;;;;;;7.90;1.30;;;;;;;;;;5042204;28;20498;-84
2022/04/08 10:05:13;;;;;;;4.70;1.20;;;;;;;;;;5076373;28;20055;-85
2022/04/08 10:07:40;;;;;;;4.97;1.33;;;;;;;;;;5097888;28;20438;-85
2022/04/08 10:10:29;;;;;;;6.88;1.52;;;;;;;;;;5063350;28;20122;-84
2022/04/08 10:13:19;;;;;;;2.22;1.10;;;;;;;;;;5081618;28;20030;-85
2022/04/08 10:15:50;;;;;;;3.88;1.48;;;;;;;;;;5100954;28;20023;-84
2022/04/08 10:18:16;;;;;;;6.30;1.50;;;;;;;;;;5101203;28;20359;-81
2022/04/08 10:20:41;;;;;;;3.65;1.40;;;;;;;;;;5082576;28;20031;-83
2022/04/08 10:23:18;;;;;;;2.25;1.17;;;;;;;;;;5063449;28;20052;-84
2022/04/08 10:25:50;;;;;;;4.63;1.35;;;;;;;;;;5083628;28;20020;-81
2022/04/08 10:28:15;;;;;;;2.35;1.13;;;;;;;;;;5064711;28;20451;-82
2022/04/08 10:30:46;;;;;;;4.82;1.10;;;;;;;;;;5064809;28;20034;-81
2022/04/08 10:33:13;;;;;;;2.80;1.27;;;;;;;;;;5082195;28;20024;-81
2022/04/08 10:35:39;;;;;;;3.55;1.38;;;;;;;;;;5080998;28;20066;-79
2022/04/08 10:38:07;;;;;;;7.28;1.38;;;;;;;;;;5099319;28;20470;-82
2022/04/08 10:40:37;;;;;;;2.85;1.10;;;;;;;;;;5080090;28;20483;-80
2022/04/08 10:43:05;;;;;;;4.55;1.63;;;;;;;;;;5080230;28;20036;-80
2022/04/08 10:45:31;;;;;;;5.78;1.10;;;;;;;;;;5098951;28;20459;-83
2022/04/08 10:48:01;;;;;;;2.15;1.05;;;;;;;;;;5063374;28;20032;-83
2022/04/08 10:50:30;;;;;;;5.45;1.40;;;;;;;;;;5080577;28;20024;-82
2022/04/08 10:53:13;;;;;;;2.10;1.10;;;;;;;;;;5062595;28;20039;-80
2022/04/08 10:55:46;;;;;;;3.10;1.35;;;;;;;;;;5062563;28;20100;-81
2022/04/08 10:58:13;;;;;;;8.95;1.20;;;;;;;;;;5078755;28;20498;-80
2022/04/08 11:00:39;;;;;;;2.40;0.90;;;;;;;;;;5079122;28;20034;-80
2022/04/08 11:03:04;;;;;;;4.75;1.30;;;;;;;;;;5079029;28;20024;-82
2022/04/08 11:05:35;;;;;;;5.78;1.23;;;;;;;;;;5096526;28;20382;-80
2022/04/08 11:08:01;;;;;;;3.25;1.38;;;;;;;;;;5096641;28;20485;-81
2022/04/08 11:10:27;;;;;;;5.88;1.58;;;;;;;;;;5078735;28;20115;-82
2022/04/08 11:12:55;;;;;;;7.05;1.30;;;;;;;;;;5078760;28;20115;-81
2022/04/08 11:15:23;;;;;;;2.40;1.20;;;;;;;;;;5079300;28;20356;-81
2022/04/08 11:17:49;;;;;;;10.48;2.38;;;;;;;;;;5077103;28;20028;-83
2022/04/08 11:20:21;;;;;;;2.88;0.90;;;;;;;;;;5096259;28;20034;-82
2022/04/08 11:22:56;;;;;;;6.57;1.70;;;;;;;;;;5058000;28;20057;-82
2022/04/08 11:25:27;;;;;;;9.68;1.80;;;;;;;;;;5075079;28;20020;-83
2022/04/08 11:27:59;;;;;;;3.38;1.40;;;;;;;;;;5074714;28;20070;-82
2022/04/08 11:30:25;;;;;;;5.40;1.50;;;;;;;;;;5075925;28;20033;-82
2022/04/08 11:32:51;;;;;;;6.20;1.88;;;;;;;;;;5074655;28;20024;-83
2022/04/08 11:35:16;;;;;;;7.38;1.42;;;;;;;;;;5074644;28;20535;-82
2022/04/08 11:37:42;;;;;;;5.22;1.45;;;;;;;;;;5074878;28;20051;-82
2022/04/08 11:40:08;;;;;;;2.35;1.08;;;;;;;;;;5074684;28;20086;-84
2022/04/08 11:42:34;;;;;;;4.53;1.25;;;;;;;;;;5074499;28;20107;-81
2022/04/08 11:44:59;;;;;;;6.57;1.70;;;;;;;;;;5057971;28;20218;-82
2022/04/08 11:47:32;;;;;;;3.80;1.23;;;;;;;;;;5041049;28;20033;-82
2022/04/08 11:50:08;;;;;;;4.15;1.58;;;;;;;;;;5074903;28;20028;-82
2022/04/08 11:52:34;;;;;;;2.78;1.08;;;;;;;;;;5057587;28;20028;-82
2022/04/08 11:55:05;;;;;;;5.40;1.25;;;;;;;;;;5075648;28;20031;-82
2022/04/08 11:57:32;;;;;;;2.70;1.35;;;;;;;;;;5074206;28;20028;-81
2022/04/08 11:59:59;;;;;;;6.47;1.20;;;;;;;;;;5073993;28;20031;-81
2022/04/08 12:02:25;;;;;;;1.88;1.20;;;;;;;;;;5057832;28;20165;-82
2022/04/08 12:04:51;;;;;;;3.90;1.17;;;;;;;;;;5057683;28;20119;-82
2022/04/08 12:07:28;;;;;;;2.45;1.08;;;;;;;;;;5073965;28;20096;-82
2022/04/08 12:09:54;;;;;;;5.65;1.13;;;;;;;;;;5074181;28;20085;-82
2022/04/08 12:12:24;;;;;;;3.67;1.00;;;;;;;;;;5073821;28;20395;-82
2022/04/08 12:14:50;;;;;;;4.72;1.40;;;;;;;;;;5075065;28;20050;-82
2022/04/08 12:17:15;;;;;;;2.95;0.93;;;;;;;;;;5074036;28;20126;-83
2022/04/08 12:19:41;;;;;;;2.45;1.10;;;;;;;;;;5057880;28;20032;-82
2022/04/08 12:22:14;;;;;;;4.75;1.10;;;;;;;;;;5073553;28;20066;-83
2022/04/08 12:24:41;;;;;;;3.50;1.15;;;;;;;;;;5075313;28;20036;-82
2022/04/08 12:27:17;;;;;;;3.35;0.93;;;;;;;;;;5073935;28;20555;-82
2022/04/08 12:29:43;;;;;;;3.90;1.00;;;;;;;;;;5073503;28;20032;-82
2022/04/08 12:32:13;;;;;;;4.18;1.40;;;;;;;;;;5073789;28;20024;-83
2022/04/08 12:34:39;;;;;;;4.55;0.90;;;;;;;;;;5056938;28;20399;-82
2022/04/08 12:37:04;;;;;;;4.07;1.20;;;;;;;;;;5074961;28;20024;-82
2022/04/08 12:39:30;;;;;;;3.28;1.42;;;;;;;;;;5073290;28;20075;-80
2022/04/08 12:41:59;;;;;;;2.92;1.10;;;;;;;;;;5056746;28;20501;-80
2022/04/08 12:44:24;;;;;;;4.80;1.00;;;;;;;;;;5074340;28;20581;-80
2022/04/08 12:46:51;;;;;;;2.58;1.08;;;;;;;;;;5074923;28;20125;-80
2022/04/08 12:49:17;;;;;;;1.70;0.98;;;;;;;;;;5074652;28;20020;-81
2022/04/08 12:51:42;;;;;;;3.90;1.23;;;;;;;;;;5056662;28;20029;-81
2022/04/08 12:54:08;;;;;;;5.05;1.10;;;;;;;;;;5074753;28;20036;-82
2022/04/08 12:56:33;;;;;;;2.90;0.93;;;;;;;;;;5074948;28;20032;-83
2022/04/08 12:59:00;;;;;;;4.03;1.30;;;;;;;;;;5072962;28;20029;-82
2022/04/08 13:01:25;;;;;;;4.78;1.45;;;;;;;;;;5072914;28;20031;-83
2022/04/08 13:03:51;;;;;;;3.45;0.95;;;;;;;;;;5073338;28;20033;-81
2022/04/08 13:06:16;;;;;;;7.40;1.35;;;;;;;;;;5056368;28;20373;-80
2022/04/08 13:08:42;;;;;;;2.70;1.25;;;;;;;;;;5074156;28;20030;-82
2022/04/08 13:11:07;;;;;;;2.42;1.23;;;;;;;;;;5073014;28;20407;-81
2022/04/08 13:13:33;;;;;;;3.63;1.30;;;;;;;;;;5072991;28;20025;-84
2022/04/08 13:15:58;;;;;;;4.05;1.20;;;;;;;;;;5073133;28;20474;-84
2022/04/08 13:18:24;;;;;;;3.90;0.93;;;;;;;;;;5073019;28;20032;-84
2022/04/08 13:20:49;;;;;;;4.07;1.00;;;;;;;;;;5074870;28;20029;-82
2022/04/08 13:23:15;;;;;;;15.30;1.55;;;;;;;;;;5095292;28;20122;-81
2022/04/08 13:25:41;;;;;;;5.97;1.40;;;;;;;;;;5076376;28;20024;-82
2022/04/08 13:28:08;;;;;;;6.78;1.40;;;;;;;;;;5076091;28;20034;-82
2022/04/08 13:30:34;;;;;;;9.23;1.40;;;;;;;;;;5075739;28;20389;-84
2022/04/08 13:32:59;;;;;;;2.17;0.90;;;;;;;;;;5094363;28;20031;-84
2022/04/08 13:35:24;;;;;;;5.32;1.63;;;;;;;;;;5059519;28;20028;-84
2022/04/08 13:37:51;;;;;;;3.33;1.35;;;;;;;;;;5075550;28;20490;-82
2022/04/08 13:40:17;;;;;;;6.30;1.20;;;;;;;;;;5093376;28;20486;-84
2022/04/08 13:42:42;;;;;;;2.30;1.10;;;;;;;;;;5093770;28;20042;-83
2022/04/08 13:45:08;;;;;;;4.10;1.30;;;;;;;;;;5075890;28;20475;-83
2022/04/08 13:47:34;;;;;;;5.43;1.30;;;;;;;;;;5075836;28;20441;-83
2022/04/08 13:50:00;;;;;;;7.15;1.48;;;;;;;;;;5075724;28;20032;-81
2022/04/08 13:52:26;;;;;;;4.63;1.42;;;;;;;;;;5094237;28;20028;-83
2022/04/08 13:54:52;;;;;;;2.00;1.00;;;;;;;;;;5077629;28;20486;-82
2022/04/08 13:57:18;;;;;;;5.75;1.15;;;;;;;;;;5076839;28;20076;-83
2022/04/08 13:59:43;;;;;;;6.03;1.35;;;;;;;;;;5059092;28;20503;-84
2022/04/08 14:02:12;;;;;;;4.13;1.40;;;;;;;;;;5076497;28;20071;-84
2022/04/08 14:04:37;;;;;;;5.07;1.42;;;;;;;;;;5093898;28;20035;-84
2022/04/08 14:07:03;;;;;;;3.45;1.40;;;;;;;;;;5075806;28;20036;-83
2022/04/08 14:09:28;;;;;;;3.67;1.30;;;;;;;;;;5075611;28;20046;-84
2022/04/08 14:11:54;;;;;;;5.85;2.17;;;;;;;;;;5075694;28;20094;-84
2022/04/08 14:14:20;;;;;;;3.03;1.08;;;;;;;;;;5093793;28;20074;-84
2022/04/08 14:16:45;;;;;;;5.07;1.17;;;;;;;;;;5093559;28;20028;-84
2022/04/08 14:19:11;;;;;;;2.72;0.88;;;;;;;;;;5075781;28;20097;-84
2022/04/08 14:21:36;;;;;;;6.47;1.23;;;;;;;;;;5093467;28;20071;-84
2022/04/08 14:24:01;;;;;;;3.15;1.30;;;;;;;;;;5075743;28;20048;-84
2022/04/08 14:26:27;;;;;;;2.17;1.30;;;;;;;;;;5075685;28;20032;-84
2022/04/08 14:28:52;;;;;;;2.78;1.10;;;;;;;;;;5058568;28;20024;-84
2022/04/08 14:31:18;;;;;;;4.50;1.10;;;;;;;;;;5093387;28;20039;-84
2022/04/08 14:33:44;;;;;;;3.92;1.23;;;;;;;;;;5093242;28;20036;-84
2022/04/08 14:36:09;;;;;;;2.65;1.05;;;;;;;;;;5075209;28;20028;-84
2022/04/08 14:38:35;;;;;;;1.85;1.10;;;;;;;;;;5093552;28;20032;-84